Middletown, CT (06459)

4:20 PM EDT on July 23, 2016 (GMT -0400)
Middletown Framing | | Change Station

Elev 56 ft 41.56 °N, 72.65 °W | Updated 4 minutes ago

Partly Cloudy
Partly Cloudy
96.4 °F
Feels Like 97 °F
N
6.0
Wind Variable Wind from SW
Gusts 11.0 mph

Today
High -- | Low -- °F
--% Chance of Precip.
Yesterday
High -- | Low -- °F
Precip. -- in
Pressure 29.78 in
Visibility 10.0 miles
Clouds Few 7500 ft
Heat Index 97 °F
Dew Point 61 °F
Humidity 31%
Rainfall 0.00 in
Snow Depth Not available.
5:37 AM 8:16 PM
Waning Gibbous, 83% visible
METAR KMMK 231953Z AUTO 28007KT 240V300 10SM FEW075 34/15 A2978 RMK AO2 SLP083 T03440150 TSNO
Pressure 29.78 in
Visibility 10.0 miles
Clouds Few 7500 ft
Heat Index 97 °F
Dew Point 61 °F
Humidity 31%
Rainfall 0.00 in
Snow Depth Not available.
5:37 AM 8:16 PM
Waning Gibbous, 83% visible
METAR KMMK 231953Z AUTO 28007KT 240V300 10SM FEW075 34/15 A2978 RMK AO2 SLP083 T03440150 TSNO

10-Day Weather Forecast

Almanac

Astronomy

Jul. 23, 2016 Rise Set
Actual Time
Civil Twilight
Nautical Twilight
Astronomical Twilight
Moon
Length of Visible Light
Length of Day
Tomorrow will be .
, % of the Moon is Illuminated

Today's Extremes

State Highs State Lows

Community

WunderPhotos

Upload Photos

1,926,913 photos uploaded!

WunderBlog® & News

Nearby

Air Quality

  Air Quality AQ Index Pollutant
Not available.

Snow Depth

Station Depth Elevation

Earthquake Activity

City Distance Mag. Time & Date
Minimum magnitude displayed is 2.5.

Coastal Water Temperatures

Place Temperature

Stations

Nearby Weather Stations

Station Location Temp. Windchill Dew Point Humidity Wind Precip. Elev Updated Type
                   

Watches & Warnings

There are currently no watches in effect.